Terminal Aerodrome Forecast
Issued by NWS

Home | Current Version | Previous Version | Text Only | Print | Product List | Glossary On
Versions: 1 2 3 4 5 6 7 8 9 10 11 12 13 14
000
FTUS43 KTOP 020520
TAFFOE
TAF
KFOE 020520Z 0206/0306 04008KT P6SM BKN035
     FM021100 02007KT 5SM BR BKN020
      TEMPO 0211/0214 BKN007
     FM021800 03010KT P6SM BKN035=

USA.gov is the U.S. government's official web portal to all federal, state and local government web resources and services.